KSZL/SZL METAR and TAF weather

Enter ICAO airport designator
Station Type Date Time Source
KSZL METAR 2019/02/16 06:56 UTC NOAA

KSZL 160656Z 35006KT 10SM OVC040 M09/M12 A3011 RMK SLPNO ALSTG ESTMD T10901123 $


Station Type Date Time Source
KSZL Decoded METAR 2019/02/16 06:56 UTC NOAA

Whiteman Air Force Base, MO, United States (KSZL) 38-44N 093-33W
Feb 16, 2019 - 01:56 AM EST / 2019.02.16 0656 UTC
Wind: from the N (350 degrees) at 7 MPH (6 KT):0
Visibility: 10 mile(s):0
Sky conditions: overcast
Temperature: 15.8 F (-9.0 C)
Windchill: 6 F (-14 C):1
Dew Point: 9.9 F (-12.3 C)
Relative Humidity: 76%
Pressure (altimeter): 30.11 in. Hg (1019 hPa)
ob: KSZL 160656Z 35006KT 10SM OVC040 M09/M12 A3011 RMK SLPNO ALSTG ESTMD T10901123
cycle: 7

Station Type Date Time Source
KSZL TAF 2019/02/16 03:16 UTC NOAA

TAF KSZL 160300Z 1603/1709 02012KT 8000 -SN BR FEW010 BKN040 620404 QNH3000INS
BECMG 1607/1608 03006KT 9999 NSW SCT030 QNH3003INS
BECMG 1609/1610 04009KT 9999 FEW050 QNH2983INS
BECMG 1621/1622 10009KT 9999 BKN015 620159 621054 QNH2977INS
BECMG 1704/1705 12006KT 2400 -SN OVC007 620079 620973 QNH2974INS
BECMG 1707/1708 13006KT 9000 BR OVC008 620089 QNH2975INS TX01/1622Z TNM11/1613Z


Example: see airport list